Time;durP1;ratioP1;P1;durP2;ratioP2;P2;SDS_P1;SDS_P2;PMS_P1;PMS_P2;Temp;Humidity;BMP_temperature;BMP_pressure;BME280_temperature;BME280_humidity;BME280_pressure;Samples;Min_cycle;Max_cycle;Signal;HPM_P1;HPM_P2
2021/05/20 00:00:12;;;;;;;;;;;;;;;24.28;61.75;100285.91;5040484;28;1019;-73
2021/05/20 00:02:38;;;;;;;;;;;;;;;24.28;61.81;100288.66;5033172;28;1961;-77
2021/05/20 00:05:04;;;;;;;;;;;;;;;24.28;61.51;100286.72;5045878;28;938;-78
2021/05/20 00:07:29;;;;;;;;;;;;;;;24.28;61.24;100281.19;5052161;28;955;-77
2021/05/20 00:09:55;;;;;;;;;;;;;;;24.29;61.20;100277.31;5052616;28;881;-77
2021/05/20 00:12:20;;;;;;;;;;;;;;;24.29;61.12;100282.03;5052391;28;838;-75
2021/05/20 00:14:46;;;;;;;;;;;;;;;24.30;61.30;100270.66;5051448;28;916;-75
2021/05/20 00:17:11;;;;;;;;;;;;;;;24.31;60.94;100272.31;5051710;28;1866;-77
2021/05/20 00:19:36;;;;;;;;;;;;;;;24.31;61.17;100258.53;5051739;28;795;-74
2021/05/20 00:22:02;;;;;;;;;;;;;;;24.29;60.95;100257.25;5050997;28;958;-75
2021/05/20 00:24:27;;;;;;;;;;;;;;;24.28;60.66;100236.38;5051072;28;1149;-75
2021/05/20 00:26:52;;;;;;;;;;;;;;;24.27;60.57;100246.59;5051437;28;909;-75
2021/05/20 00:29:18;;;;;;;;;;;;;;;24.28;60.54;100255.63;5051337;28;1360;-74
2021/05/20 00:31:43;;;;;;;;;;;;;;;24.27;60.31;100248.53;5051310;28;882;-76
2021/05/20 00:34:08;;;;;;;;;;;;;;;24.26;60.38;100250.47;5051532;28;914;-76
2021/05/20 00:36:34;;;;;;;;;;;;;;;24.25;60.50;100254.38;5051698;28;854;-77
2021/05/20 00:38:59;;;;;;;;;;;;;;;24.25;60.37;100251.59;5051688;28;1961;-77
2021/05/20 00:41:24;;;;;;;;;;;;;;;24.25;60.25;100239.81;5044652;28;1741;-77
2021/05/20 00:43:50;;;;;;;;;;;;;;;24.24;60.00;100236.22;5031645;28;920;-77
2021/05/20 00:46:15;;;;;;;;;;;;;;;24.26;59.98;100235.91;5031691;28;923;-77
2021/05/20 00:48:41;;;;;;;;;;;;;;;24.26;59.89;100241.41;5043225;28;828;-78
2021/05/20 00:51:06;;;;;;;;;;;;;;;24.25;60.06;100237.84;5051788;28;1002;-77
2021/05/20 00:53:31;;;;;;;;;;;;;;;24.26;60.13;100227.63;5052123;28;1247;-78
2021/05/20 00:55:57;;;;;;;;;;;;;;;24.24;60.31;100230.72;5052170;28;878;-78
2021/05/20 00:58:22;;;;;;;;;;;;;;;24.25;60.12;100228.78;5051535;28;1870;-74
2021/05/20 01:00:51;;;;;;;;;;;;;;;24.26;60.00;100230.38;5050689;28;927;-75
2021/05/20 01:03:35;;;;;;;;;;;;;;;24.28;60.10;100222.59;5051126;28;850;-77
2021/05/20 01:06:00;;;;;;;;;;;;;;;24.26;60.03;100220.19;5051744;28;882;-72
2021/05/20 01:08:27;;;;;;;;;;;;;;;24.27;60.36;100224.56;5050481;28;850;-73
2021/05/20 01:10:52;;;;;;;;;;;;;;;24.27;60.24;100212.75;5050660;28;933;-73
2021/05/20 01:13:18;;;;;;;;;;;;;;;24.27;60.18;100204.50;5050300;28;952;-73
2021/05/20 01:15:43;;;;;;;;;;;;;;;24.26;60.28;100208.38;5050426;28;966;-73
2021/05/20 01:18:08;;;;;;;;;;;;;;;24.27;60.09;100212.75;5050665;28;1874;-73
2021/05/20 01:20:39;;;;;;;;;;;;;;;24.27;60.40;100210.00;5054206;28;925;-73
2021/05/20 01:23:12;;;;;;;;;;;;;;;24.26;60.96;100206.41;5039458;28;1101;-73
2021/05/20 01:25:38;;;;;;;;;;;;;;;24.24;60.61;100205.94;5033182;28;846;-73
2021/05/20 01:28:09;;;;;;;;;;;;;;;24.25;60.75;100202.06;5034511;28;876;-73
2021/05/20 01:30:35;;;;;;;;;;;;;;;24.25;60.67;100193.81;5034720;28;1266;-73
2021/05/20 01:33:01;;;;;;;;;;;;;;;24.26;60.96;100197.38;5034623;28;1177;-75
2021/05/20 01:35:26;;;;;;;;;;;;;;;24.26;61.26;100195.41;5016910;28;1244;-75
2021/05/20 01:38:01;;;;;;;;;;;;;;;24.27;61.32;100194.28;5034812;28;1907;-75
2021/05/20 01:40:26;;;;;;;;;;;;;;;24.25;61.27;100187.50;5016792;28;1435;-74
2021/05/20 01:42:52;;;;;;;;;;;;;;;24.27;61.34;100182.47;5036094;28;909;-74
2021/05/20 01:45:17;;;;;;;;;;;;;;;24.26;61.40;100187.16;5054272;28;874;-74
2021/05/20 01:47:42;;;;;;;;;;;;;;;24.26;61.34;100178.91;5053907;28;1281;-74
2021/05/20 01:50:08;;;;;;;;;;;;;;;24.27;61.63;100168.72;5054026;28;945;-74
2021/05/20 01:52:33;;;;;;;;;;;;;;;24.27;61.41;100161.25;5036326;28;2549;-75
2021/05/20 01:54:58;;;;;;;;;;;;;;;24.28;61.18;100159.31;5054221;28;999;-75
2021/05/20 01:57:24;;;;;;;;;;;;;;;24.27;60.89;100157.72;5054214;28;1890;-75
2021/05/20 01:59:49;;;;;;;;;;;;;;;24.26;61.08;100156.88;5054251;28;884;-76
2021/05/20 02:02:14;;;;;;;;;;;;;;;24.26;61.23;100162.38;5053900;28;1029;-76
2021/05/20 02:04:40;;;;;;;;;;;;;;;24.25;61.09;100163.53;5054099;28;807;-75
2021/05/20 02:07:05;;;;;;;;;;;;;;;24.25;60.84;100165.50;5053851;28;904;-72
2021/05/20 02:09:30;;;;;;;;;;;;;;;24.26;61.23;100162.38;5053523;28;881;-72
2021/05/20 02:11:56;;;;;;;;;;;;;;;24.26;61.02;100156.09;5053649;28;885;-72
2021/05/20 02:14:21;;;;;;;;;;;;;;;24.25;60.91;100151.75;5053649;28;859;-74
2021/05/20 02:16:46;;;;;;;;;;;;;;;24.26;60.79;100145.09;5043757;28;2106;-75
2021/05/20 02:19:11;;;;;;;;;;;;;;;24.29;60.91;100155.44;5046987;28;961;-74
2021/05/20 02:21:37;;;;;;;;;;;;;;;24.29;60.65;100166.44;5053582;28;909;-74
2021/05/20 02:24:03;;;;;;;;;;;;;;;24.28;60.71;100159.31;5041679;28;1090;-75
2021/05/20 02:26:28;;;;;;;;;;;;;;;24.29;60.83;100141.69;5033557;28;864;-75
2021/05/20 02:28:53;;;;;;;;;;;;;;;24.30;60.72;100140.53;5033551;28;847;-76
2021/05/20 02:31:19;;;;;;;;;;;;;;;24.28;60.59;100138.09;5037412;28;2161;-77
2021/05/20 02:33:44;;;;;;;;;;;;;;;24.28;60.91;100137.28;5034528;28;921;-78
2021/05/20 02:36:09;;;;;;;;;;;;;;;24.31;61.07;100133.88;5034281;28;902;-75
2021/05/20 02:38:35;;;;;;;;;;;;;;;24.32;61.13;100133.53;5033277;28;1902;-74
2021/05/20 02:41:00;;;;;;;;;;;;;;;24.33;60.98;100143.41;5033620;28;937;-80
2021/05/20 02:43:26;;;;;;;;;;;;;;;24.35;60.72;100150.53;5036789;28;865;-74
2021/05/20 02:45:51;;;;;;;;;;;;;;;24.41;60.71;100151.94;5052915;28;1178;-73
2021/05/20 02:48:17;;;;;;;;;;;;;;;24.42;60.94;100148.84;5044925;28;2025;-72
2021/05/20 02:50:42;;;;;;;;;;;;;;;24.38;60.57;100145.16;5040935;28;1863;-71
2021/05/20 02:53:07;;;;;;;;;;;;;;;24.33;59.86;100142.63;5048970;28;884;-71
2021/05/20 02:55:33;;;;;;;;;;;;;;;24.33;58.77;100148.13;5052870;28;880;-71
2021/05/20 02:58:00;;;;;;;;;;;;;;;24.32;59.14;100146.50;5048830;28;1941;-72
2021/05/20 03:00:30;;;;;;;;;;;;;;;24.26;59.39;100151.38;5033040;28;1969;-72
2021/05/20 03:02:57;;;;;;;;;;;;;;;24.20;59.60;100151.91;5051751;28;928;-72
2021/05/20 03:05:22;;;;;;;;;;;;;;;24.21;58.95;100148.84;5052213;28;1666;-71
2021/05/20 03:07:48;;;;;;;;;;;;;;;24.20;58.64;100149.16;5043308;28;1673;-71
2021/05/20 03:10:14;;;;;;;;;;;;;;;24.18;58.86;100144.00;5039812;28;1880;-72
2021/05/20 03:12:39;;;;;;;;;;;;;;;24.18;58.30;100138.50;5039135;28;1654;-72
2021/05/20 03:15:05;;;;;;;;;;;;;;;24.18;58.30;100138.50;5049566;28;1367;-72
2021/05/20 03:17:30;;;;;;;;;;;;;;;24.21;57.33;100143.34;5047707;28;1995;-72
2021/05/20 03:19:55;;;;;;;;;;;;;;;24.21;56.95;100145.28;5045099;28;1550;-72
2021/05/20 03:22:23;;;;;;;;;;;;;;;24.20;57.68;100129.91;5044983;28;1470;-72
2021/05/20 03:24:50;;;;;;;;;;;;;;;24.19;57.39;100126.34;5047129;28;1328;-72
2021/05/20 03:27:16;;;;;;;;;;;;;;;24.17;56.88;100117.63;5046523;28;1575;-72
2021/05/20 03:29:42;;;;;;;;;;;;;;;24.15;57.49;100111.66;5049111;28;1138;-72
2021/05/20 03:32:07;;;;;;;;;;;;;;;24.11;57.01;100108.75;5050788;28;1234;-72
2021/05/20 03:34:33;;;;;;;;;;;;;;;24.15;56.82;100108.91;5048034;28;1477;-72
2021/05/20 03:36:58;;;;;;;;;;;;;;;24.11;57.30;100108.75;5027022;28;1922;-72
2021/05/20 03:39:23;;;;;;;;;;;;;;;24.09;57.50;100108.28;5050024;28;1269;-72
2021/05/20 03:41:48;;;;;;;;;;;;;;;24.13;56.70;100116.69;5050169;28;1273;-72
2021/05/20 03:44:14;;;;;;;;;;;;;;;24.12;57.50;100109.56;5050192;28;1439;-72
2021/05/20 03:46:39;;;;;;;;;;;;;;;24.11;57.01;100105.22;5050595;28;1293;-72
2021/05/20 03:49:04;;;;;;;;;;;;;;;24.08;57.63;100109.41;5050988;28;1253;-72
2021/05/20 03:51:30;;;;;;;;;;;;;;;24.07;57.36;100132.56;5050217;28;1396;-72
2021/05/20 03:53:55;;;;;;;;;;;;;;;24.07;57.34;100143.56;5048506;28;1328;-72
2021/05/20 03:56:21;;;;;;;;;;;;;;;24.07;56.97;100149.06;5043589;28;1444;-71
2021/05/20 03:58:46;;;;;;;;;;;;;;;24.06;57.17;100143.91;5043487;28;1866;-72
2021/05/20 04:01:11;;;;;;;;;;;;;;;24.07;56.08;100127.06;5042506;28;1760;-72
2021/05/20 04:03:37;;;;;;;;;;;;;;;24.08;56.00;100128.66;5045152;28;1412;-72
2021/05/20 04:06:03;;;;;;;;;;;;;;;24.05;57.31;100128.56;5042370;28;1490;-77
2021/05/20 04:08:28;;;;;;;;;;;;;;;24.04;56.32;100135.16;5039275;28;1646;-77
2021/05/20 04:10:54;;;;;;;;;;;;;;;24.05;56.32;100140.34;5043396;28;1625;-77
2021/05/20 04:13:46;;;;;;;;;;;;;;;24.04;54.94;100140.69;5047184;28;1301;-77
2021/05/20 04:16:12;;;;;;;;;;;;;;;24.04;55.15;100144.22;5023285;28;1212;-78
2021/05/20 04:18:37;;;;;;;;;;;;;;;24.04;56.37;100146.19;5042319;28;1904;-78
2021/05/20 04:21:03;;;;;;;;;;;;;;;24.03;56.25;100134.38;5038297;28;1647;-77
2021/05/20 04:23:28;;;;;;;;;;;;;;;24.02;56.71;100138.25;5038992;28;1449;-77
2021/05/20 04:25:54;;;;;;;;;;;;;;;24.01;55.81;100133.91;5041216;28;819;-77
2021/05/20 04:28:19;;;;;;;;;;;;;;;24.02;56.38;100118.19;5034130;28;1520;-77
2021/05/20 04:30:45;;;;;;;;;;;;;;;24.02;57.06;100120.94;5018977;28;1801;-76
2021/05/20 04:33:11;;;;;;;;;;;;;;;23.97;54.08;100121.94;5031151;28;1410;-78
2021/05/20 04:35:37;;;;;;;;;;;;;;;23.91;53.59;100132.34;5038771;28;2048;-78
2021/05/20 04:38:04;;;;;;;;;;;;;;;23.90;53.58;100132.66;5040012;28;2017;-78
2021/05/20 04:40:29;;;;;;;;;;;;;;;23.85;51.96;100125.41;5038149;28;886;-77
2021/05/20 04:42:55;;;;;;;;;;;;;;;23.84;51.21;100122.97;5030335;28;807;-77
2021/05/20 04:45:20;;;;;;;;;;;;;;;23.81;50.51;100123.66;5030270;28;818;-78
2021/05/20 04:47:46;;;;;;;;;;;;;;;23.82;50.56;100133.50;5030067;28;893;-78
2021/05/20 04:50:12;;;;;;;;;;;;;;;23.77;50.17;100136.41;5012454;28;1346;-78
2021/05/20 04:52:38;;;;;;;;;;;;;;;23.79;51.22;100137.72;5029877;28;792;-78
2021/05/20 04:55:04;;;;;;;;;;;;;;;23.79;50.39;100139.69;5049553;28;879;-78
2021/05/20 04:57:29;;;;;;;;;;;;;;;23.76;50.79;100143.84;5031774;28;1945;-78
2021/05/20 04:59:54;;;;;;;;;;;;;;;23.75;49.99;100138.69;5049870;28;851;-78
2021/05/20 05:02:20;;;;;;;;;;;;;;;23.73;49.94;100136.28;5053258;28;803;-78
2021/05/20 05:04:45;;;;;;;;;;;;;;;23.71;50.11;100141.28;5050221;28;849;-77
2021/05/20 05:07:10;;;;;;;;;;;;;;;23.69;49.58;100138.06;5022180;28;1434;-78
2021/05/20 05:09:36;;;;;;;;;;;;;;;23.66;49.95;100134.03;5037641;28;929;-77
2021/05/20 05:12:01;;;;;;;;;;;;;;;23.65;49.42;100137.91;5046607;28;810;-78
2021/05/20 05:14:26;;;;;;;;;;;;;;;23.65;48.67;100131.63;5044146;28;1512;-77
2021/05/20 05:16:53;;;;;;;;;;;;;;;23.64;48.02;100146.47;5039165;28;1870;-78
2021/05/20 05:19:19;;;;;;;;;;;;;;;23.61;49.20;100145.22;5034867;28;1701;-78
2021/05/20 05:21:44;;;;;;;;;;;;;;;23.60;48.61;100146.31;5036862;28;1473;-77
2021/05/20 05:24:09;;;;;;;;;;;;;;;23.60;48.84;100138.09;5034062;28;1626;-78
2021/05/20 05:26:35;;;;;;;;;;;;;;;23.58;49.57;100147.81;5024671;28;1250;-78
2021/05/20 05:29:00;;;;;;;;;;;;;;;23.58;49.80;100156.84;5021601;28;1197;-78
2021/05/20 05:31:26;;;;;;;;;;;;;;;23.59;50.05;100154.94;5037788;28;1785;-77
2021/05/20 05:33:52;;;;;;;;;;;;;;;23.58;50.94;100156.03;5039181;28;1536;-74
2021/05/20 05:36:17;;;;;;;;;;;;;;;23.63;50.94;100153.13;5039387;28;881;-77
2021/05/20 05:38:44;;;;;;;;;;;;;;;23.60;50.63;100151.03;5033336;28;1973;-74
2021/05/20 05:41:09;;;;;;;;;;;;;;;23.57;51.21;100152.50;5011704;28;1347;-75
2021/05/20 05:43:34;;;;;;;;;;;;;;;23.57;50.96;100169.00;5029326;28;879;-74
2021/05/20 05:46:00;;;;;;;;;;;;;;;23.55;50.33;100175.97;5049708;28;811;-72
2021/05/20 05:48:25;;;;;;;;;;;;;;;23.49;49.13;100172.56;5048823;28;886;-72
2021/05/20 05:50:53;;;;;;;;;;;;;;;23.46;48.71;100160.31;5049346;28;778;-72
2021/05/20 05:53:18;;;;;;;;;;;;;;;23.45;48.54;100150.44;5049325;28;950;-72
2021/05/20 05:55:43;;;;;;;;;;;;;;;23.46;48.93;100162.22;5049082;28;847;-72
2021/05/20 05:58:09;;;;;;;;;;;;;;;23.44;48.57;100153.50;5049179;28;1927;-72
2021/05/20 06:00:34;;;;;;;;;;;;;;;23.37;47.63;100154.00;5049113;28;897;-72
2021/05/20 06:03:00;;;;;;;;;;;;;;;23.36;46.97;100152.38;5047227;28;865;-72
2021/05/20 06:05:25;;;;;;;;;;;;;;;23.31;46.00;100158.88;5049993;28;871;-72
2021/05/20 06:07:50;;;;;;;;;;;;;;;23.27;45.55;100160.66;5051607;28;870;-72
2021/05/20 06:10:16;;;;;;;;;;;;;;;23.24;45.42;100155.00;5051496;28;803;-72
2021/05/20 06:12:41;;;;;;;;;;;;;;;23.25;46.06;100160.16;5051879;28;794;-72
2021/05/20 06:15:07;;;;;;;;;;;;;;;23.25;45.88;100165.66;5045094;28;2128;-72
2021/05/20 06:17:32;;;;;;;;;;;;;;;23.25;46.40;100168.41;5042433;28;1930;-72
2021/05/20 06:19:57;;;;;;;;;;;;;;;23.24;46.37;100161.31;5040739;28;807;-72
2021/05/20 06:22:23;;;;;;;;;;;;;;;23.21;46.04;100164.72;5032564;28;1137;-72
2021/05/20 06:24:49;;;;;;;;;;;;;;;23.20;46.80;100160.38;5032592;28;811;-72
2021/05/20 06:27:14;;;;;;;;;;;;;;;23.22;47.11;100163.59;5032422;28;1824;-72
2021/05/20 06:29:39;;;;;;;;;;;;;;;23.24;46.77;100161.31;5039351;28;966;-72
2021/05/20 06:32:05;;;;;;;;;;;;;;;23.22;46.42;100151.78;5042408;28;960;-72
2021/05/20 06:34:30;;;;;;;;;;;;;;;23.18;45.87;100151.63;5032501;28;805;-72
2021/05/20 06:36:58;;;;;;;;;;;;;;;23.16;46.38;100147.56;5032387;28;1979;-72
2021/05/20 06:39:23;;;;;;;;;;;;;;;23.19;47.04;100145.00;5032042;28;847;-72
2021/05/20 06:41:49;;;;;;;;;;;;;;;23.22;47.39;100146.28;5032368;28;786;-72
2021/05/20 06:44:14;;;;;;;;;;;;;;;23.24;48.18;100158.56;5032381;28;823;-72
2021/05/20 06:46:39;;;;;;;;;;;;;;;23.23;47.58;100156.94;5032263;28;960;-72
2021/05/20 06:49:07;;;;;;;;;;;;;;;23.21;47.50;100153.72;5032541;28;898;-72
2021/05/20 06:51:33;;;;;;;;;;;;;;;23.19;46.85;100150.50;5032206;28;882;-72
2021/05/20 06:53:58;;;;;;;;;;;;;;;23.17;46.76;100149.22;5032311;28;935;-72
2021/05/20 06:56:25;;;;;;;;;;;;;;;23.17;46.68;100154.69;5032502;28;870;-72
2021/05/20 07:01:35;;;;;;;;;;;;;;;23.15;46.15;100173.44;5032005;28;750;-72
2021/05/20 07:04:00;;;;;;;;;;;;;;;23.16;46.04;100178.63;5032123;28;810;-72
2021/05/20 07:06:27;;;;;;;;;;;;;;;23.14;46.35;100175.41;5031651;28;795;-72
2021/05/20 07:08:52;;;;;;;;;;;;;;;23.15;46.77;100181.69;5032155;28;831;-72
2021/05/20 07:11:18;;;;;;;;;;;;;;;23.14;46.42;100175.41;5031917;28;779;-72
2021/05/20 07:13:43;;;;;;;;;;;;;;;23.14;46.84;100178.16;5031683;28;933;-72
2021/05/20 07:16:08;;;;;;;;;;;;;;;23.16;47.11;100177.81;5030612;28;779;-72
2021/05/20 07:18:34;;;;;;;;;;;;;;;23.17;47.53;100184.91;5031619;28;1933;-72
2021/05/20 07:20:59;;;;;;;;;;;;;;;23.17;46.92;100182.97;5031457;28;960;-72
2021/05/20 07:23:24;;;;;;;;;;;;;;;23.16;45.96;100194.28;5031447;28;1232;-72
2021/05/20 07:25:50;;;;;;;;;;;;;;;23.12;45.71;100188.66;5031857;28;798;-72
2021/05/20 07:28:15;;;;;;;;;;;;;;;23.09;45.56;100194.78;5013778;28;898;-72
2021/05/20 07:30:41;;;;;;;;;;;;;;;23.07;45.44;100199.78;5031567;28;877;-72
2021/05/20 07:33:06;;;;;;;;;;;;;;;23.06;45.46;100193.50;5031393;28;886;-72
2021/05/20 07:35:32;;;;;;;;;;;;;;;23.07;45.39;100195.09;5031172;28;878;-72
2021/05/20 07:37:57;;;;;;;;;;;;;;;23.08;45.78;100204.13;5029541;28;1978;-72
2021/05/20 07:40:23;;;;;;;;;;;;;;;23.06;45.59;100203.66;5031188;28;1039;-72
2021/05/20 07:42:48;;;;;;;;;;;;;;;23.05;45.48;100204.81;5031195;28;822;-72
2021/05/20 07:45:15;;;;;;;;;;;;;;;23.03;45.26;100196.88;5031190;28;810;-72
2021/05/20 07:47:40;;;;;;;;;;;;;;;23.01;45.25;100207.34;5031217;28;886;-72
2021/05/20 07:50:07;;;;;;;;;;;;;;;22.99;44.79;100212.38;5030748;28;847;-72
2021/05/20 07:52:33;;;;;;;;;;;;;;;22.99;44.83;100214.31;5031369;28;1729;-72
2021/05/20 07:54:58;;;;;;;;;;;;;;;22.99;45.10;100212.38;5037684;28;941;-72
2021/05/20 07:57:24;;;;;;;;;;;;;;;22.97;44.91;100202.84;5040102;28;1870;-72
2021/05/20 07:59:50;;;;;;;;;;;;;;;22.97;45.27;100216.56;5030891;28;820;-72
2021/05/20 08:04:42;;;;;;;;;;;;;;;22.94;45.33;100226.28;5030728;28;840;-72
2021/05/20 08:07:15;;;;;;;;;;;;;;;22.93;45.19;100219.94;5030970;28;827;-72
2021/05/20 08:09:48;;;;;;;;;;;;;;;22.94;44.82;100227.06;5030752;28;819;-72
2021/05/20 08:12:13;;;;;;;;;;;;;;;22.96;45.58;100229.50;5030143;28;811;-72
2021/05/20 08:14:38;;;;;;;;;;;;;;;22.98;45.77;100234.66;5030784;28;881;-72
2021/05/20 08:17:06;;;;;;;;;;;;;;;22.97;46.26;100235.78;5030790;28;1871;-72
2021/05/20 08:19:31;;;;;;;;;;;;;;;23.00;46.06;100244.19;5031750;28;1750;-72
2021/05/20 08:21:57;;;;;;;;;;;;;;;23.01;47.37;100243.06;5040181;28;858;-72
2021/05/20 08:24:22;;;;;;;;;;;;;;;23.01;46.64;100256.78;5040747;28;1407;-72
2021/05/20 08:26:47;;;;;;;;;;;;;;;23.01;46.12;100256.00;5030236;28;946;-73
2021/05/20 08:29:13;;;;;;;;;;;;;;;23.00;46.11;100268.94;5030701;28;1725;-72
2021/05/20 08:31:38;;;;;;;;;;;;;;;22.99;45.62;100263.75;5038430;28;1579;-72
2021/05/20 08:36:47;;;;;;;;;;;;;;;23.00;45.98;100268.09;5030301;28;736;-72
2021/05/20 08:39:13;;;;;;;;;;;;;;;23.00;45.92;100281.81;5029942;28;1906;-72
2021/05/20 08:41:38;;;;;;;;;;;;;;;22.99;45.81;100270.03;5030301;28;894;-72
2021/05/20 08:44:11;;;;;;;;;;;;;;;23.00;46.46;100265.34;5030192;28;906;-72
2021/05/20 08:46:37;;;;;;;;;;;;;;;23.02;46.35;100265.88;5030216;28;870;-72
2021/05/20 08:49:02;;;;;;;;;;;;;;;23.02;45.91;100279.59;5029697;28;894;-73
2021/05/20 08:51:28;;;;;;;;;;;;;;;23.00;45.79;100277.16;5029988;28;910;-73
2021/05/20 08:53:53;;;;;;;;;;;;;;;23.01;46.12;100272.47;5030318;28;922;-73
2021/05/20 08:56:18;;;;;;;;;;;;;;;23.04;46.45;100266.34;5030044;28;819;-73
2021/05/20 08:58:44;;;;;;;;;;;;;;;23.07;47.53;100258.28;5029755;28;1875;-75
2021/05/20 09:01:09;;;;;;;;;;;;;;;23.07;46.93;100269.25;5029936;28;922;-73
2021/05/20 09:03:34;;;;;;;;;;;;;;;23.09;47.90;100260.72;5029648;28;855;-75
2021/05/20 09:06:04;;;;;;;;;;;;;;;23.10;48.10;100259.56;5029599;28;915;-75
2021/05/20 09:08:34;;;;;;;;;;;;;;;23.10;48.14;100262.31;5012077;28;1338;-73
2021/05/20 09:11:01;;;;;;;;;;;;;;;23.11;48.23;100255.69;5029670;28;857;-73
2021/05/20 09:13:33;;;;;;;;;;;;;;;23.11;48.41;100264.75;5032425;28;1470;-73
2021/05/20 09:16:09;;;;;;;;;;;;;;;23.11;48.44;100261.19;5040132;28;1613;-73
2021/05/20 09:18:38;;;;;;;;;;;;;;;23.12;47.09;100268.31;5039937;28;1874;-73
2021/05/20 09:21:06;;;;;;;;;;;;;;;23.12;48.49;100268.31;5042086;28;1588;-73
2021/05/20 09:23:31;;;;;;;;;;;;;;;23.13;48.22;100270.72;5046172;28;1493;-73
2021/05/20 09:26:07;;;;;;;;;;;;;;;23.14;48.40;100266.06;5045019;28;1581;-75
2021/05/20 09:28:35;;;;;;;;;;;;;;;23.14;48.60;100277.03;5042383;28;1530;-73
2021/05/20 09:31:00;;;;;;;;;;;;;;;23.15;49.01;100294.34;5042275;28;1115;-73
2021/05/20 09:33:26;;;;;;;;;;;;;;;23.16;49.16;100290.44;5043271;28;1604;-74
2021/05/20 09:35:51;;;;;;;;;;;;;;;23.14;48.24;100290.78;5028201;28;1546;-75
2021/05/20 09:38:21;;;;;;;;;;;;;;;23.15;48.35;100288.84;5026545;28;1894;-73
2021/05/20 09:40:51;;;;;;;;;;;;;;;23.18;48.79;100288.19;5049172;28;1174;-73
2021/05/20 09:43:24;;;;;;;;;;;;;;;23.18;49.25;100288.19;5052875;28;1385;-73
2021/05/20 09:45:56;;;;;;;;;;;;;;;23.17;49.09;100292.06;5051418;28;1552;-76
2021/05/20 09:48:22;;;;;;;;;;;;;;;23.18;49.11;100308.25;5048825;28;1540;-73
2021/05/20 09:50:48;;;;;;;;;;;;;;;23.18;48.25;100310.97;5047696;28;1229;-73
2021/05/20 09:53:18;;;;;;;;;;;;;;;23.19;48.63;100301.59;5049558;28;1895;-73
2021/05/20 09:55:53;;;;;;;;;;;;;;;23.19;48.90;100303.53;5051612;28;1565;-73
2021/05/20 09:58:21;;;;;;;;;;;;;;;23.20;49.39;100316.13;5047818;28;1886;-73
2021/05/20 10:00:48;;;;;;;;;;;;;;;23.20;47.80;100313.38;5039645;28;1558;-73
2021/05/20 10:03:15;;;;;;;;;;;;;;;23.20;48.95;100310.63;5039236;28;1083;-73
2021/05/20 10:05:44;;;;;;;;;;;;;;;23.20;48.59;100316.97;5050602;28;823;-73
2021/05/20 10:08:11;;;;;;;;;;;;;;;23.21;48.26;100329.56;5047576;28;1396;-73
2021/05/20 10:10:38;;;;;;;;;;;;;;;23.21;48.50;100334.25;5045446;28;1370;-73
2021/05/20 10:13:04;;;;;;;;;;;;;;;23.21;48.55;100337.00;5049407;28;1314;-73
2021/05/20 10:15:31;;;;;;;;;;;;;;;23.19;48.42;100333.75;5043443;28;1698;-73
2021/05/20 10:17:58;;;;;;;;;;;;;;;23.21;48.67;100342.50;5029457;28;1939;-75
2021/05/20 10:20:24;;;;;;;;;;;;;;;23.21;48.46;100339.75;5051251;28;895;-73
2021/05/20 10:22:49;;;;;;;;;;;;;;;23.20;48.63;100343.63;5041659;28;1784;-73
2021/05/20 10:25:15;;;;;;;;;;;;;;;23.21;48.99;100340.53;5048392;28;800;-74
2021/05/20 10:27:41;;;;;;;;;;;;;;;23.20;48.63;100347.19;5051162;28;813;-73
2021/05/20 10:30:08;;;;;;;;;;;;;;;23.19;48.86;100345.56;5051872;28;842;-73
2021/05/20 10:32:34;;;;;;;;;;;;;;;23.21;48.56;100345.25;5051979;28;1192;-73
2021/05/20 10:35:06;;;;;;;;;;;;;;;23.21;48.30;100340.53;5052078;28;960;-73
2021/05/20 10:37:42;;;;;;;;;;;;;;;23.21;48.34;100343.28;5051983;28;1981;-73
2021/05/20 10:40:09;;;;;;;;;;;;;;;23.21;48.30;100343.28;5052169;28;854;-73
2021/05/20 10:42:37;;;;;;;;;;;;;;;23.24;48.32;100347.34;5052180;28;867;-73
2021/05/20 10:45:15;;;;;;;;;;;;;;;23.25;48.38;100351.72;5052118;28;846;-73
2021/05/20 10:47:59;;;;;;;;;;;;;;;23.26;48.16;100362.38;5034318;28;1270;-73
2021/05/20 10:50:44;;;;;;;;;;;;;;;23.27;47.84;100357.69;5047656;28;1406;-73
2021/05/20 10:53:09;;;;;;;;;;;;;;;23.29;48.09;100352.69;5051156;28;1240;-72
2021/05/20 10:55:38;;;;;;;;;;;;;;;23.29;48.14;100358.19;5052020;28;1096;-73
2021/05/20 10:58:03;;;;;;;;;;;;;;;23.31;48.37;100356.72;5050069;28;1878;-74
2021/05/20 11:00:34;;;;;;;;;;;;;;;23.31;48.04;100351.22;5050212;28;795;-73
2021/05/20 11:03:00;;;;;;;;;;;;;;;23.32;48.20;100358.34;5050981;28;870;-73
2021/05/20 11:05:41;;;;;;;;;;;;;;;23.33;48.19;100368.19;5051221;28;921;-74
2021/05/20 11:08:09;;;;;;;;;;;;;;;23.35;48.27;100367.09;5051298;28;787;-73
2021/05/20 11:10:37;;;;;;;;;;;;;;;23.34;48.08;100363.50;5051514;28;866;-75
2021/05/20 11:13:04;;;;;;;;;;;;;;;23.35;48.35;100359.63;5048257;28;1383;-74
2021/05/20 11:15:29;;;;;;;;;;;;;;;23.36;48.40;100358.50;5051642;28;806;-73
2021/05/20 11:17:55;;;;;;;;;;;;;;;23.37;48.16;100360.13;5051497;28;1945;-73
2021/05/20 11:20:23;;;;;;;;;;;;;;;23.37;48.66;100362.06;5051835;28;814;-73
2021/05/20 11:23:21;;;;;;;;;;;;;;;23.37;49.01;100370.31;5051545;28;1370;-73
2021/05/20 11:25:57;;;;;;;;;;;;;;;23.37;49.03;100365.63;5028490;28;1482;-75
2021/05/20 11:28:23;;;;;;;;;;;;;;;23.38;49.74;100360.94;5033514;28;1208;-73
2021/05/20 11:30:54;;;;;;;;;;;;;;;23.38;49.93;100358.19;5051672;28;878;-73
2021/05/20 11:33:22;;;;;;;;;;;;;;;23.40;49.84;100365.00;5051330;28;890;-73
2021/05/20 11:38:29;;;;;;;;;;;;;;;23.40;49.80;100362.25;5051284;28;1961;-73
2021/05/20 11:40:55;;;;;;;;;;;;;;;23.41;50.50;100355.59;5051290;28;873;-74
2021/05/20 11:43:28;;;;;;;;;;;;;;;23.42;49.89;100362.72;5033037;28;1093;-73
2021/05/20 11:45:53;;;;;;;;;;;;;;;23.44;49.21;100359.63;5051416;28;890;-73
2021/05/20 11:48:18;;;;;;;;;;;;;;;23.46;48.71;100354.63;5051147;28;799;-73
2021/05/20 11:50:53;;;;;;;;;;;;;;;23.46;48.96;100349.13;5050978;28;783;-73
2021/05/20 11:53:18;;;;;;;;;;;;;;;23.47;49.17;100367.25;5050939;28;886;-73
2021/05/20 11:55:46;;;;;;;;;;;;;;;23.46;49.30;100371.94;5050953;28;861;-73
2021/05/20 11:58:11;;;;;;;;;;;;;;;23.47;49.20;100370.81;5050559;28;1878;-73
2021/05/20 12:00:37;;;;;;;;;;;;;;;23.48;49.88;100368.84;5050808;28;786;-73
2021/05/20 12:03:03;;;;;;;;;;;;;;;23.46;50.19;100382.09;5050204;28;953;-73
2021/05/20 12:05:28;;;;;;;;;;;;;;;23.48;49.86;100374.34;5033102;28;1212;-73
2021/05/20 12:07:54;;;;;;;;;;;;;;;23.49;49.83;100379.53;5051298;28;791;-73
2021/05/20 12:10:20;;;;;;;;;;;;;;;23.49;49.83;100386.97;5050631;28;945;-73
2021/05/20 12:12:48;;;;;;;;;;;;;;;23.49;49.56;100381.47;5050262;28;913;-73
2021/05/20 12:15:20;;;;;;;;;;;;;;;23.48;49.28;100385.34;5050695;28;889;-74
2021/05/20 12:17:47;;;;;;;;;;;;;;;23.49;49.25;100382.28;5050918;28;1945;-74
2021/05/20 12:20:13;;;;;;;;;;;;;;;23.50;49.37;100381.16;5044250;28;1744;-74
2021/05/20 12:22:39;;;;;;;;;;;;;;;23.51;49.26;100379.22;5044041;28;1656;-74
2021/05/20 12:25:07;;;;;;;;;;;;;;;23.50;49.06;100392.16;5041722;28;1782;-74
2021/05/20 12:27:35;;;;;;;;;;;;;;;23.49;49.38;100385.03;5040415;28;1607;-74
2021/05/20 12:30:00;;;;;;;;;;;;;;;23.49;49.28;100382.28;5040626;28;1664;-74
2021/05/20 12:32:27;;;;;;;;;;;;;;;23.49;49.09;100378.72;5022742;28;1639;-73
2021/05/20 12:35:09;;;;;;;;;;;;;;;23.49;48.57;100370.50;5039985;28;1449;-74
2021/05/20 12:37:53;;;;;;;;;;;;;;;23.48;48.28;100375.19;5040687;28;1914;-74
2021/05/20 12:40:19;;;;;;;;;;;;;;;23.48;48.35;100364.19;5032454;28;1699;-75
2021/05/20 12:42:50;;;;;;;;;;;;;;;23.49;48.24;100365.00;5038817;28;846;-75
2021/05/20 12:45:16;;;;;;;;;;;;;;;23.49;48.30;100375.97;5016421;28;1829;-75
2021/05/20 12:47:45;;;;;;;;;;;;;;;23.49;47.98;100387.78;5040186;28;1664;-73
2021/05/20 12:50:10;;;;;;;;;;;;;;;23.49;47.79;100382.28;5038785;28;887;-74
2021/05/20 12:52:52;;;;;;;;;;;;;;;23.48;47.97;100386.19;5040347;28;1689;-74
2021/05/20 12:55:17;;;;;;;;;;;;;;;23.48;47.81;100391.69;5030316;28;826;-74
2021/05/20 12:57:56;;;;;;;;;;;;;;;23.49;47.81;100392.47;5030652;28;1866;-73
2021/05/20 13:00:22;;;;;;;;;;;;;;;23.47;47.67;100387.28;5023711;28;1129;-74